createdAt,value
2018-04-28T00:02:21.922Z,95141.38
2018-04-28T00:04:50.163Z,95143.94
2018-04-28T00:07:18.408Z,95146.05
2018-04-28T00:09:46.665Z,95151.03
2018-04-28T00:12:14.946Z,95146.93
2018-04-28T00:14:43.209Z,95145.78
2018-04-28T00:17:17.420Z,95155.95
2018-04-28T00:19:47.923Z,95161.73
2018-04-28T00:22:23.535Z,95158.84
2018-04-28T00:24:55.578Z,95156.28
2018-04-28T00:27:33.331Z,95164.23
2018-04-28T00:30:03.439Z,95168.23
2018-04-28T00:32:31.683Z,95162.58
2018-04-28T00:35:09.049Z,95163.39
2018-04-28T00:37:53.902Z,95172.44
2018-04-28T00:40:27.878Z,95168.80
2018-04-28T00:42:59.284Z,95164.43
2018-04-28T00:45:37.348Z,95169.78
2018-04-28T00:48:36.896Z,95167.02
2018-04-28T00:51:20.265Z,95168.23
2018-04-28T00:53:49.212Z,95173.05
2018-04-28T00:56:20.543Z,95178.70
2018-04-28T00:58:53.965Z,95177.83
2018-04-28T01:01:29.408Z,95175.70
2018-04-28T01:07:03.536Z,95182.91
2018-04-28T01:09:31.769Z,95182.48
2018-04-28T01:12:01.095Z,95183.99
2018-04-28T01:14:36.078Z,95187.52
2018-04-28T01:17:04.326Z,95192.86
2018-04-28T01:19:42.145Z,95194.04
2018-04-28T01:22:10.477Z,95198.69
2018-04-28T01:24:41.930Z,95194.22
2018-04-28T01:27:15.374Z,95201.02
2018-04-28T01:29:57.378Z,95198.03
2018-04-28T01:32:26.430Z,95200.27
2018-04-28T01:34:59.992Z,95204.81
2018-04-28T01:37:42.155Z,95206.48
2018-04-28T01:40:13.148Z,95212.83
2018-04-28T01:43:00.627Z,95218.34
2018-04-28T01:45:46.986Z,95219.17
2018-04-28T01:48:26.325Z,95222.14
2018-04-28T01:57:19.447Z,95232.27
2018-04-28T02:03:11.178Z,95242.89
2018-04-28T02:05:51.014Z,95245.77
2018-04-28T02:08:20.042Z,95252.52
2018-04-28T02:10:54.966Z,95254.45
2018-04-28T02:13:43.698Z,95256.16
2018-04-28T02:19:21.635Z,95266.53
2018-04-28T02:22:06.493Z,95262.25
2018-04-28T02:24:42.626Z,95263.08
2018-04-28T02:27:11.638Z,95263.11
2018-04-28T02:29:42.313Z,95270.36
2018-04-28T02:35:28.482Z,95268.19
2018-04-28T02:37:58.510Z,95263.48
2018-04-28T02:43:28.372Z,95271.35
2018-04-28T02:46:02.895Z,95268.83
2018-04-28T02:51:49.235Z,95277.34
2018-04-28T02:54:24.269Z,95277.63
2018-04-28T02:56:59.399Z,95276.72
2018-04-28T03:02:35.411Z,95289.95
2018-04-28T03:05:44.655Z,95296.98
2018-04-28T03:08:18.202Z,95297.22
2018-04-28T03:11:03.250Z,95296.05
2018-04-28T03:13:50.450Z,95304.53
2018-04-28T03:16:52.088Z,95308.84
2018-04-28T03:19:21.987Z,95306.70
2018-04-28T03:21:50.933Z,95307.66
2018-04-28T03:30:59.950Z,95306.98
2018-04-28T03:33:39.486Z,95311.53
2018-04-28T03:36:17.333Z,95306.04
2018-04-28T03:38:54.250Z,95306.04
2018-04-28T03:41:26.042Z,95310.90
2018-04-28T03:50:30.340Z,95318.20
2018-04-28T03:53:18.743Z,95318.22
2018-04-28T03:55:46.980Z,95321.85
2018-04-28T04:01:46.250Z,95336.89
2018-04-28T04:07:21.897Z,95336.39
2018-04-28T04:10:01.428Z,95340.80
2018-04-28T04:12:33.350Z,95344.83
2018-04-28T04:15:01.597Z,95341.10
2018-04-28T04:17:47.522Z,95345.12
2018-04-28T04:23:24.648Z,95354.52
2018-04-28T04:29:46.110Z,95351.25
2018-04-28T04:32:18.605Z,95355.38
2018-04-28T04:38:14.885Z,95355.33
2018-04-28T04:40:44.767Z,95357.76
2018-04-28T04:43:16.050Z,95358.13
2018-04-28T04:45:56.173Z,95358.80
2018-04-28T04:52:06.610Z,95368.52
2018-04-28T05:01:04.426Z,95369.70
2018-04-28T05:07:09.197Z,95380.66
2018-04-28T05:13:23.246Z,95392.48
2018-04-28T05:16:05.721Z,95397.47
2018-04-28T05:18:46.562Z,95402.69
2018-04-28T05:21:46.358Z,95406.95
2018-04-28T05:27:32.137Z,95408.89
2018-04-28T05:30:12.054Z,95406.13
2018-04-28T05:32:58.197Z,95409.59
2018-04-28T05:39:18.634Z,95412.19
2018-04-28T05:41:54.278Z,95412.01
2018-04-28T05:47:51.050Z,95407.20
2018-04-28T05:50:36.055Z,95409.09
2018-04-28T05:56:21.038Z,95413.11
2018-04-28T05:58:58.099Z,95413.03
2018-04-28T06:01:41.957Z,95409.30
2018-04-28T06:04:28.682Z,95408.56
2018-04-28T06:07:20.434Z,95410.20
2018-04-28T06:10:01.235Z,95412.06
2018-04-28T06:12:56.821Z,95419.84
2018-04-28T06:21:52.546Z,95428.59
2018-04-28T06:24:20.794Z,95432.34
2018-04-28T06:26:49.044Z,95427.38
2018-04-28T06:29:17.291Z,95430.31
2018-04-28T06:31:45.548Z,95424.44
2018-04-28T06:34:13.793Z,95430.80
2018-04-28T06:36:42.792Z,95434.17
2018-04-28T06:39:11.047Z,95432.97
2018-04-28T06:41:39.302Z,95431.46
2018-04-28T06:44:07.534Z,95429.11
2018-04-28T06:46:36.550Z,95437.31
2018-04-28T06:49:04.782Z,95434.47
2018-04-28T06:51:33.018Z,95435.62
2018-04-28T06:54:01.266Z,95437.58
2018-04-28T06:56:29.510Z,95429.98
2018-04-28T06:58:57.750Z,95425.06
2018-04-28T07:01:26.111Z,95427.14
2018-04-28T07:03:54.651Z,95425.39
2018-04-28T07:06:23.664Z,95418.41
2018-04-28T07:08:51.906Z,95413.11
2018-04-28T07:11:20.437Z,95417.72
2018-04-28T07:13:48.671Z,95412.87
2018-04-28T07:16:16.907Z,95412.05
2018-04-28T07:18:45.154Z,95407.22
2018-04-28T07:21:13.398Z,95408.67
2018-04-28T07:23:42.408Z,95408.36
2018-04-28T07:26:11.406Z,95404.63
2018-04-28T07:28:39.705Z,95401.95
2018-04-28T07:31:07.954Z,95405.29
2018-04-28T07:33:36.976Z,95402.64
2018-04-28T07:36:05.214Z,95409.44
2018-04-28T07:38:34.217Z,95407.20
2018-04-28T07:41:02.471Z,95410.33
2018-04-28T07:43:30.706Z,95409.27
2018-04-28T07:45:58.955Z,95404.84
2018-04-28T07:48:27.200Z,95404.09
2018-04-28T07:50:56.519Z,95405.56
2018-04-28T07:53:25.522Z,95402.22
2018-04-28T07:55:53.792Z,95402.02
2018-04-28T07:58:22.043Z,95397.64
2018-04-28T08:00:50.371Z,95398.53
2018-04-28T08:03:18.595Z,95394.61
2018-04-28T08:05:46.855Z,95395.48
2018-04-28T08:08:15.186Z,95392.12
2018-04-28T08:10:43.641Z,95389.41
2018-04-28T08:13:12.667Z,95387.19
2018-04-28T08:15:40.911Z,95391.81
2018-04-28T08:18:10.178Z,95384.48
2018-04-28T08:20:38.427Z,95392.22
2018-04-28T08:23:06.659Z,95387.63
2018-04-28T08:25:35.680Z,95385.00
2018-04-28T08:28:03.914Z,95386.16
2018-04-28T08:30:32.922Z,95382.00
2018-04-28T08:33:01.942Z,95384.88
2018-04-28T08:35:30.174Z,95379.67
2018-04-28T08:37:58.402Z,95376.26
2018-04-28T08:40:26.669Z,95377.59
2018-04-28T08:42:54.923Z,95375.61
2018-04-28T08:45:23.919Z,95371.52
2018-04-28T08:47:52.918Z,95368.77
2018-04-28T08:50:21.170Z,95370.84
2018-04-28T08:52:50.171Z,95365.08
2018-04-28T08:55:19.182Z,95360.98
2018-04-28T08:57:47.433Z,95360.15
2018-04-28T09:00:29.540Z,95364.23
2018-04-28T09:02:58.851Z,95359.28
2018-04-28T09:05:27.086Z,95360.56
2018-04-28T09:07:55.326Z,95353.62
2018-04-28T09:10:23.670Z,95353.59
2018-04-28T09:12:52.674Z,95346.08
2018-04-28T09:15:20.914Z,95343.52
2018-04-28T09:17:49.174Z,95340.19
2018-04-28T09:20:17.410Z,95338.94
2018-04-28T09:22:45.651Z,95334.05
2018-04-28T09:25:14.663Z,95329.08
2018-04-28T09:27:43.671Z,95325.66
2018-04-28T09:30:11.928Z,95324.19
2018-04-28T09:32:41.952Z,95328.28
2018-04-28T09:35:10.186Z,95324.21
2018-04-28T09:37:38.431Z,95318.03
2018-04-28T09:40:06.690Z,95321.96
2018-04-28T09:42:34.929Z,95311.56
2018-04-28T09:45:03.945Z,95317.10
2018-04-28T09:47:32.950Z,95310.36
2018-04-28T09:50:01.194Z,95305.44
2018-04-28T09:52:29.442Z,95307.69
2018-04-28T09:54:57.676Z,95300.70
2018-04-28T09:57:25.939Z,95290.47
2018-04-28T09:59:54.943Z,95281.30
2018-04-28T10:02:23.185Z,95285.42
2018-04-28T10:04:51.511Z,95277.03
2018-04-28T10:07:19.750Z,95281.55
2018-04-28T10:09:48.758Z,95280.41
2018-04-28T10:12:17.009Z,95269.47
2018-04-28T10:14:45.357Z,95272.91
2018-04-28T10:17:14.298Z,95262.67
2018-04-28T10:19:43.323Z,95263.98
2018-04-28T10:22:11.575Z,95257.96
2018-04-28T10:24:40.149Z,95247.91
2018-04-28T10:27:09.181Z,95250.37
2018-04-28T10:29:37.419Z,95249.78
2018-04-28T10:32:06.450Z,95248.88
2018-04-28T10:34:34.690Z,95243.17
2018-04-28T10:37:02.950Z,95233.98
2018-04-28T10:39:31.958Z,95236.10
2018-04-28T10:42:00.977Z,95230.71
2018-04-28T10:44:29.209Z,95230.27
2018-04-28T10:46:58.321Z,95220.74
2018-04-28T10:49:27.329Z,95213.44
2018-04-28T10:51:55.572Z,95212.34
2018-04-28T10:54:24.175Z,95213.06
2018-04-28T10:56:53.197Z,95207.91
2018-04-28T10:59:21.444Z,95200.81
2018-04-28T11:01:49.692Z,95202.37
2018-04-28T11:04:17.923Z,95193.81
2018-04-28T11:06:46.386Z,95190.24
2018-04-28T11:09:14.621Z,95179.61
2018-04-28T11:11:42.850Z,95180.42
2018-04-28T11:14:11.105Z,95176.10
2018-04-28T11:16:40.118Z,95174.97
2018-04-28T11:19:08.601Z,95173.89
2018-04-28T11:21:36.826Z,95173.73
2018-04-28T11:24:05.061Z,95173.50
2018-04-28T11:26:33.315Z,95166.16
2018-04-28T11:29:01.573Z,95160.09
2018-04-28T11:31:29.834Z,95157.75
2018-04-28T11:33:58.836Z,95151.09
2018-04-28T11:36:28.146Z,95152.03
2018-04-28T11:38:56.378Z,95145.55
2018-04-28T11:41:24.621Z,95141.75
2018-04-28T11:43:52.872Z,95143.62
2018-04-28T11:46:21.866Z,95138.84
2018-04-28T11:48:50.134Z,95133.31
2018-04-28T11:51:19.146Z,95129.06
2018-04-28T11:53:47.389Z,95123.80
2018-04-28T11:56:15.626Z,95125.87
2018-04-28T11:58:44.167Z,95116.43
2018-04-28T12:01:12.401Z,95107.89
2018-04-28T12:03:40.654Z,95112.62
2018-04-28T12:06:09.202Z,95110.30
2018-04-28T12:08:38.209Z,95112.30
2018-04-28T12:11:06.449Z,95107.45
2018-04-28T12:13:34.694Z,95111.04
2018-04-28T12:16:02.967Z,95100.22
2018-04-28T12:18:31.178Z,95099.09
2018-04-28T12:21:00.226Z,95096.79
2018-04-28T12:23:28.484Z,95092.63
2018-04-28T12:25:56.717Z,95094.48
2018-04-28T12:28:24.962Z,95087.17
2018-04-28T12:30:53.230Z,95080.05
2018-04-28T12:33:21.473Z,95083.31
2018-04-28T12:35:49.713Z,95079.54
2018-04-28T12:38:17.978Z,95078.07
2018-04-28T12:40:46.239Z,95072.84
2018-04-28T12:43:14.475Z,95072.06
2018-04-28T12:45:43.469Z,95073.75
2018-04-28T12:48:11.977Z,95064.61
2018-04-28T12:50:40.229Z,95064.23
2018-04-28T12:53:08.459Z,95059.94
2018-04-28T12:55:36.710Z,95057.32
2018-04-28T12:58:05.026Z,95056.72
2018-04-28T13:00:34.040Z,95047.42
2018-04-28T13:03:02.290Z,95050.61
2018-04-28T13:05:30.616Z,95052.16
2018-04-28T13:07:58.856Z,95048.52
2018-04-28T13:10:27.866Z,95042.89
2018-04-28T13:12:56.103Z,95040.91
2018-04-28T13:15:24.350Z,95035.90
2018-04-28T13:17:53.709Z,95034.36
2018-04-28T13:20:21.953Z,95030.12
2018-04-28T13:22:50.959Z,95024.06
2018-04-28T13:25:19.469Z,95022.51
2018-04-28T13:27:47.744Z,95026.34
2018-04-28T13:30:15.989Z,95023.63
2018-04-28T13:32:45.004Z,95018.63
2018-04-28T13:35:13.259Z,95016.98
2018-04-28T13:37:42.268Z,95005.05
2018-04-28T13:40:11.288Z,95009.58
2018-04-28T13:42:40.301Z,95008.90
2018-04-28T13:45:08.635Z,94999.89
2018-04-28T13:47:37.114Z,95002.55
2018-04-28T13:50:05.354Z,94994.22
2018-04-28T13:52:33.591Z,94996.90
2018-04-28T13:55:02.046Z,94996.33
2018-04-28T13:57:30.295Z,94990.25
2018-04-28T13:59:58.533Z,94987.20
2018-04-28T14:02:26.798Z,94986.67
2018-04-28T14:04:55.031Z,94983.16
2018-04-28T14:07:24.052Z,94980.66
2018-04-28T14:09:52.305Z,94984.70
2018-04-28T14:12:21.319Z,94980.04
2018-04-28T14:14:49.611Z,94979.59
2018-04-28T14:17:17.850Z,94971.71
2018-04-28T14:19:46.855Z,94976.10
2018-04-28T14:22:15.877Z,94970.65
2018-04-28T14:24:44.113Z,94971.35
2018-04-28T14:27:13.129Z,94964.48
2018-04-28T14:29:41.365Z,94963.72
2018-04-28T14:32:09.594Z,94960.38
2018-04-28T14:34:37.846Z,94957.72
2018-04-28T14:37:06.422Z,94955.97
2018-04-28T14:39:35.506Z,94953.95
2018-04-28T14:42:04.422Z,94947.05
2018-04-28T14:44:32.715Z,94953.74
2018-04-28T14:47:00.934Z,94956.50
2018-04-28T14:49:29.196Z,94953.67
2018-04-28T14:51:57.431Z,94953.13
2018-04-28T14:54:25.685Z,94949.41
2018-04-28T14:56:54.694Z,94958.39
2018-04-28T14:59:22.986Z,94943.80
2018-04-28T15:01:51.233Z,94948.01
2018-04-28T15:04:20.237Z,94944.73
2018-04-28T15:06:48.488Z,94938.48
2018-04-28T15:09:17.512Z,94945.82
2018-04-28T15:11:45.790Z,94946.56
2018-04-28T15:14:14.032Z,94940.30
2018-04-28T15:16:43.078Z,94941.05
2018-04-28T15:19:11.283Z,94938.39
2018-04-28T15:21:39.516Z,94939.92
2018-04-28T15:24:07.765Z,94932.40
2018-04-28T15:26:36.770Z,94934.84
2018-04-28T15:29:05.007Z,94937.61
2018-04-28T15:31:33.261Z,94930.87
2018-04-28T15:34:01.732Z,94936.56
2018-04-28T15:36:29.959Z,94937.96
2018-04-28T15:38:58.957Z,94939.69
2018-04-28T15:41:27.965Z,94938.91
2018-04-28T15:43:56.206Z,94927.89
2018-04-28T15:46:24.566Z,94929.78
2018-04-28T15:48:52.805Z,94928.45
2018-04-28T15:51:21.047Z,94925.11
2018-04-28T15:53:50.365Z,94929.52
2018-04-28T15:56:18.667Z,94925.54
2018-04-28T15:58:46.934Z,94928.95
2018-04-28T16:01:15.182Z,94932.53
2018-04-28T16:03:44.422Z,94917.58
2018-04-28T16:06:12.686Z,94922.06
2018-04-28T16:08:40.924Z,94928.52
2018-04-28T16:11:10.235Z,94919.59
2018-04-28T16:13:39.229Z,94910.87
2018-04-28T16:16:07.475Z,94924.83
2018-04-28T16:18:35.715Z,94920.16
2018-04-28T16:21:03.976Z,94919.23
2018-04-28T16:23:32.206Z,94917.91
2018-04-28T16:26:01.230Z,94913.07
2018-04-28T16:28:29.475Z,94916.05
2018-04-28T16:30:57.717Z,94913.47
2018-04-28T16:33:25.965Z,94913.92
2018-04-28T16:35:54.225Z,94916.24
2018-04-28T16:38:22.469Z,94910.91
2018-04-28T16:40:50.721Z,94910.59
2018-04-28T16:43:18.968Z,94906.86
2018-04-28T16:45:47.221Z,94915.13
2018-04-28T16:48:16.221Z,94910.59
2018-04-28T16:50:44.472Z,94905.09
2018-04-28T16:53:12.714Z,94911.14
2018-04-28T16:55:40.974Z,94916.32
2018-04-28T16:58:09.219Z,94911.66
2018-04-28T17:00:38.226Z,94907.31
2018-04-28T17:03:06.466Z,94911.45
2018-04-28T17:05:35.493Z,94912.05
2018-04-28T17:08:03.941Z,94916.75
2018-04-28T17:10:32.963Z,94906.61
2018-04-28T17:13:01.210Z,94911.25
2018-04-28T17:15:29.532Z,94913.88
2018-04-28T17:17:57.773Z,94914.48
2018-04-28T17:20:26.785Z,94909.39
2018-04-28T17:22:55.024Z,94917.60
2018-04-28T17:25:23.262Z,94912.38
2018-04-28T17:27:51.514Z,94916.86
2018-04-28T17:30:19.765Z,94918.21
2018-04-28T17:32:48.766Z,94915.39
2018-04-28T17:35:17.781Z,94914.48
2018-04-28T17:37:46.014Z,94917.05
2018-04-28T17:40:14.557Z,94917.91
2018-04-28T17:42:42.869Z,94926.96
2018-04-28T17:45:11.045Z,94925.20
2018-04-28T17:47:39.398Z,94923.89
2018-04-28T17:50:07.644Z,94923.95
2018-04-28T17:52:35.879Z,94921.17
2018-04-28T17:55:04.904Z,94923.13
2018-04-28T17:57:33.156Z,94926.34
2018-04-28T18:00:02.162Z,94923.02
2018-04-28T18:02:30.797Z,94926.39
2018-04-28T18:04:59.741Z,94933.56
2018-04-28T18:07:27.985Z,94934.96
2018-04-28T18:09:57.238Z,94932.84
2018-04-28T18:12:25.489Z,94934.33
2018-04-28T18:14:53.743Z,94938.63
2018-04-28T18:17:23.497Z,94937.86
2018-04-28T18:19:52.662Z,94940.61
2018-04-28T18:22:20.915Z,94941.11
2018-04-28T18:24:49.150Z,94943.24
2018-04-28T18:27:17.503Z,94945.34
2018-04-28T18:29:47.876Z,94946.20
2018-04-28T18:32:16.114Z,94944.11
2018-04-28T18:34:48.125Z,94943.83
2018-04-28T18:37:17.126Z,94951.66
2018-04-28T18:39:45.642Z,94953.61
2018-04-28T18:42:13.941Z,94946.30
2018-04-28T18:44:42.182Z,94946.81
2018-04-28T18:47:11.202Z,94945.33
2018-04-28T18:49:39.458Z,94948.22
2018-04-28T18:52:08.508Z,94947.51
2018-04-28T18:54:36.765Z,94953.97
2018-04-28T18:57:05.006Z,94949.09
2018-04-28T18:59:33.262Z,94950.88
2018-04-28T19:02:02.278Z,94952.54
2018-04-28T19:04:31.301Z,94954.23
2018-04-28T19:06:59.533Z,94955.05
2018-04-28T19:09:28.534Z,94960.72
2018-04-28T19:11:56.789Z,94963.36
2018-04-28T19:14:25.026Z,94956.36
2018-04-28T19:16:53.319Z,94958.42
2018-04-28T19:19:21.588Z,94960.69
2018-04-28T19:21:49.858Z,94960.13
2018-04-28T19:24:18.186Z,94960.78
2018-04-28T19:26:47.217Z,94961.78
2018-04-28T19:29:15.459Z,94964.09
2018-04-28T19:31:44.454Z,94966.56
2018-04-28T19:34:12.699Z,94962.88
2018-04-28T19:36:40.945Z,94967.44
2018-04-28T19:39:09.258Z,94968.47
2018-04-28T19:41:38.286Z,94969.61
2018-04-28T19:44:06.550Z,94966.18
2018-04-28T19:46:35.572Z,94971.61
2018-04-28T19:49:03.841Z,94969.50
2018-04-28T19:51:32.334Z,94972.59
2018-04-28T19:54:00.596Z,94974.12
2018-04-28T19:56:28.878Z,94977.31
2018-04-28T19:58:57.144Z,94980.59
2018-04-28T20:01:25.427Z,94973.74
2018-04-28T20:03:53.685Z,94973.27
2018-04-28T20:06:21.952Z,94973.68
2018-04-28T20:08:50.973Z,94969.84
2018-04-28T20:11:19.222Z,94969.63
2018-04-28T20:13:48.242Z,94961.98
2018-04-28T20:16:16.485Z,94967.01
2018-04-28T20:18:45.490Z,94963.98
2018-04-28T20:21:13.739Z,94970.45
2018-04-28T20:23:59.630Z,94968.13
2018-04-28T20:26:28.634Z,94962.56
2018-04-28T20:28:57.657Z,94962.09
2018-04-28T20:31:25.885Z,94962.50
2018-04-28T20:33:54.889Z,94963.05
2018-04-28T20:36:23.918Z,94952.88
2018-04-28T20:38:52.153Z,94953.15
2018-04-28T20:41:21.154Z,94956.66
2018-04-28T20:43:50.177Z,94956.73
2018-04-28T20:46:18.414Z,94952.38
2018-04-28T20:48:47.430Z,94961.92
2018-04-28T20:51:15.671Z,94959.52
2018-04-28T20:53:43.906Z,94960.50
2018-04-28T20:56:12.155Z,94962.73
2018-04-28T20:58:40.402Z,94967.08
2018-04-28T21:01:08.654Z,94968.13
2018-04-28T21:03:36.888Z,94968.75
2018-04-28T21:06:05.547Z,94960.38
2018-04-28T21:08:33.837Z,94960.70
2018-04-28T21:11:02.096Z,94957.77
2018-04-28T21:13:30.351Z,94955.69
2018-04-28T21:15:58.579Z,94952.84
2018-04-28T21:18:26.829Z,94952.91
2018-04-28T21:20:55.834Z,94953.78
2018-04-28T21:23:24.837Z,94951.95
2018-04-28T21:25:53.093Z,94945.66
2018-04-28T21:28:22.094Z,94951.28
2018-04-28T21:30:50.341Z,94942.68
2018-04-28T21:33:19.354Z,94947.06
2018-04-28T21:35:48.353Z,94948.34
2018-04-28T21:38:17.625Z,94942.92
2018-04-28T21:40:47.372Z,94946.50
2018-04-28T21:43:15.619Z,94941.63
2018-04-28T21:45:44.634Z,94946.22
2018-04-28T21:48:12.874Z,94942.81
2018-04-28T21:50:41.897Z,94944.92
2018-04-28T21:53:10.919Z,94947.21
2018-04-28T21:55:39.961Z,94945.36
2018-04-28T21:58:08.969Z,94947.73
2018-04-28T22:00:38.010Z,94944.39
2018-04-28T22:03:06.327Z,94943.86
2018-04-28T22:05:36.078Z,94940.77
2018-04-28T22:08:04.337Z,94944.34
2018-04-28T22:10:33.352Z,94945.41
2018-04-28T22:13:01.619Z,94944.59
2018-04-28T22:15:29.886Z,94944.91
2018-04-28T22:17:58.393Z,94946.80
2018-04-28T22:20:26.641Z,94943.80
2018-04-28T22:22:55.637Z,94936.62
2018-04-28T22:25:24.173Z,94936.26
2018-04-28T22:27:52.418Z,94932.42
2018-04-28T22:30:20.645Z,94931.06
2018-04-28T22:32:49.657Z,94932.51
2018-04-28T22:35:18.674Z,94929.48
2018-04-28T22:37:46.906Z,94932.48
2018-04-28T22:40:15.907Z,94934.04
2018-04-28T22:42:45.175Z,94935.88
2018-04-28T22:45:14.186Z,94930.47
2018-04-28T22:47:43.190Z,94934.80
2018-04-28T22:50:12.201Z,94939.85
2018-04-28T22:52:40.442Z,94935.58
2018-04-28T22:55:10.213Z,94936.98
2018-04-28T22:57:38.453Z,94932.45
2018-04-28T23:00:07.496Z,94930.55
2018-04-28T23:02:36.005Z,94930.84
2018-04-28T23:05:05.001Z,94928.00
2018-04-28T23:07:34.012Z,94926.63
2018-04-28T23:10:03.264Z,94924.13
2018-04-28T23:12:31.503Z,94928.08
2018-04-28T23:14:59.742Z,94929.03
2018-04-28T23:17:29.509Z,94928.31
2018-04-28T23:19:57.750Z,94928.05
2018-04-28T23:22:26.858Z,94919.36
2018-04-28T23:24:55.102Z,94917.66
2018-04-28T23:27:24.840Z,94911.72
2018-04-28T23:29:53.090Z,94910.48
2018-04-28T23:32:22.108Z,94905.33
2018-04-28T23:34:51.206Z,94904.84
2018-04-28T23:37:20.466Z,94906.84
2018-04-28T23:39:49.474Z,94900.05
2018-04-28T23:42:18.472Z,94893.06
2018-04-28T23:44:47.739Z,94895.67
2018-04-28T23:47:15.965Z,94901.30
2018-04-28T23:49:44.214Z,94888.55
2018-04-28T23:52:12.463Z,94888.73
2018-04-28T23:54:40.702Z,94882.59
2018-04-28T23:57:09.010Z,94881.02
2018-04-28T23:59:37.245Z,94882.41
